PASY METAR and TAF weather

Enter ICAO airport designator
Station Type Date Time Source
PASY METAR 2020/02/19 13:55 UTC NOAA

PASY 191355Z 01022G26KT 7SM -SHSN FEW020 SCT027 BKN038 M01/M05 A2931 RMK AO2A PK WND 01031/1256 SHSNB1256E1313B1355 SLP926 T10091045 RVRNO FZRANO $


Station Type Date Time Source
PASY Decoded METAR 2020/02/19 13:55 UTC NOAA

SHEMYA EARECKSON AS, AK, United States (PASY) 52-43N 174-07E
Feb 19, 2020 - 08:55 AM EST / 2020.02.19 1355 UTC
Wind: from the N (010 degrees) at 25 MPH (22 KT) gusting to 30 MPH (26 KT):0
Visibility: 7 mile(s):0
Sky conditions: mostly cloudy
Weather: light snow showers
Temperature: 30.4 F (-0.9 C)
Windchill: 15 F (-9 C):1
Dew Point: 23.9 F (-4.5 C)
Relative Humidity: 76%
Pressure (altimeter): 29.31 in. Hg (992 hPa)
ob: PASY 191355Z 01022G26KT 7SM -SHSN FEW020 SCT027 BKN038 M01/M05 A2931 RMK AO2A PK WND 01031/1256 SHSNB1256E1313B1355 SLP926 T10091045 RVRNO FZRANO
cycle: 14

Station Type Date Time Source
PASY TAF 2020/02/19 14:15 UTC NOAA

TAF TAF PASY 191400Z 1914/2020 02025KT 9999 BKN035 620356 QNH2929INS
BECMG 1921/1922 36020G30KT 9999 SCT040 QNH2944INS
BECMG 2005/2006 34015KT 9999 FEW040 QNH2967INS
BECMG 2012/2013 33009KT 9999 FEW040 QNH2980INS TX01/2002Z TNM03/1918Z

Example: see airport list